sensor_id;sensor_type;location;lat;lon;timestamp;temperature;humidity
37426;DHT22;23285;50.180;7.036;2023-05-25T00:03:48;10.10;99.90
37426;DHT22;23285;50.180;7.036;2023-05-25T00:09:25;9.90;99.90
37426;DHT22;23285;50.180;7.036;2023-05-25T00:12:11;9.70;99.90
37426;DHT22;23285;50.180;7.036;2023-05-25T00:14:57;9.90;99.90
37426;DHT22;23285;50.180;7.036;2023-05-25T00:17:44;9.90;99.90
37426;DHT22;23285;50.180;7.036;2023-05-25T00:20:34;10.00;99.90
37426;DHT22;23285;50.180;7.036;2023-05-25T00:23:20;10.10;99.90
37426;DHT22;23285;50.180;7.036;2023-05-25T00:26:06;10.30;99.90
37426;DHT22;23285;50.180;7.036;2023-05-25T00:28:53;10.40;99.90
37426;DHT22;23285;50.180;7.036;2023-05-25T00:31:39;10.20;99.90
37426;DHT22;23285;50.180;7.036;2023-05-25T00:37:14;10.60;99.90
37426;DHT22;23285;50.180;7.036;2023-05-25T00:40:00;10.50;99.90
37426;DHT22;23285;50.180;7.036;2023-05-25T00:48:21;10.30;99.90
37426;DHT22;23285;50.180;7.036;2023-05-25T00:51:09;10.40;99.90
37426;DHT22;23285;50.180;7.036;2023-05-25T00:53:57;10.00;99.90
37426;DHT22;23285;50.180;7.036;2023-05-25T00:56:46;10.00;99.90
37426;DHT22;23285;50.180;7.036;2023-05-25T01:02:25;10.60;99.90
37426;DHT22;23285;50.180;7.036;2023-05-25T01:05:13;10.60;99.90
37426;DHT22;23285;50.180;7.036;2023-05-25T01:08:02;10.60;99.90
37426;DHT22;23285;50.180;7.036;2023-05-25T01:10:51;10.40;99.90
37426;DHT22;23285;50.180;7.036;2023-05-25T01:16:25;10.70;99.90
37426;DHT22;23285;50.180;7.036;2023-05-25T01:19:11;10.60;99.90
37426;DHT22;23285;50.180;7.036;2023-05-25T01:22:03;10.40;99.90
37426;DHT22;23285;50.180;7.036;2023-05-25T01:27:39;10.60;99.90
37426;DHT22;23285;50.180;7.036;2023-05-25T01:30:29;10.60;99.90
37426;DHT22;23285;50.180;7.036;2023-05-25T01:33:18;10.70;99.90
37426;DHT22;23285;50.180;7.036;2023-05-25T01:38:53;10.50;99.90
37426;DHT22;23285;50.180;7.036;2023-05-25T01:41:39;10.20;99.90
37426;DHT22;23285;50.180;7.036;2023-05-25T01:47:18;9.90;99.90
37426;DHT22;23285;50.180;7.036;2023-05-25T01:50:10;9.90;99.90
37426;DHT22;23285;50.180;7.036;2023-05-25T01:53:02;10.10;99.90
37426;DHT22;23285;50.180;7.036;2023-05-25T01:55:53;10.20;99.90
37426;DHT22;23285;50.180;7.036;2023-05-25T01:58:43;10.20;99.90
37426;DHT22;23285;50.180;7.036;2023-05-25T02:07:06;10.20;99.90
37426;DHT22;23285;50.180;7.036;2023-05-25T02:09:52;10.20;99.90
37426;DHT22;23285;50.180;7.036;2023-05-25T02:12:40;10.10;99.90
37426;DHT22;23285;50.180;7.036;2023-05-25T02:15:32;10.10;99.90
37426;DHT22;23285;50.180;7.036;2023-05-25T02:18:18;10.10;99.90
37426;DHT22;23285;50.180;7.036;2023-05-25T02:21:06;10.00;99.90
37426;DHT22;23285;50.180;7.036;2023-05-25T02:23:52;9.80;99.90
37426;DHT22;23285;50.180;7.036;2023-05-25T02:29:27;9.80;99.90
37426;DHT22;23285;50.180;7.036;2023-05-25T02:35:00;9.50;99.90
37426;DHT22;23285;50.180;7.036;2023-05-25T02:37:47;9.90;99.90
37426;DHT22;23285;50.180;7.036;2023-05-25T02:40:33;9.70;99.90
37426;DHT22;23285;50.180;7.036;2023-05-25T02:43:19;10.00;99.90
37426;DHT22;23285;50.180;7.036;2023-05-25T02:46:08;9.90;99.90
37426;DHT22;23285;50.180;7.036;2023-05-25T02:48:56;9.50;99.90
37426;DHT22;23285;50.180;7.036;2023-05-25T02:57:16;9.50;99.90
37426;DHT22;23285;50.180;7.036;2023-05-25T03:05:38;9.80;99.90
37426;DHT22;23285;50.180;7.036;2023-05-25T03:08:25;9.50;99.90
37426;DHT22;23285;50.180;7.036;2023-05-25T03:11:11;9.20;99.90
37426;DHT22;23285;50.180;7.036;2023-05-25T03:13:58;9.10;99.90
37426;DHT22;23285;50.180;7.036;2023-05-25T03:16:46;9.30;99.90
37426;DHT22;23285;50.180;7.036;2023-05-25T03:19:34;9.80;99.90
37426;DHT22;23285;50.180;7.036;2023-05-25T03:22:21;9.90;99.90
37426;DHT22;23285;50.180;7.036;2023-05-25T03:27:56;9.40;99.90
37426;DHT22;23285;50.180;7.036;2023-05-25T03:30:42;9.30;99.90
37426;DHT22;23285;50.180;7.036;2023-05-25T03:33:29;9.20;99.90
37426;DHT22;23285;50.180;7.036;2023-05-25T03:39:03;9.00;99.90
37426;DHT22;23285;50.180;7.036;2023-05-25T03:41:49;9.00;99.90
37426;DHT22;23285;50.180;7.036;2023-05-25T03:44:36;8.90;99.90
37426;DHT22;23285;50.180;7.036;2023-05-25T03:47:23;9.00;99.90
37426;DHT22;23285;50.180;7.036;2023-05-25T03:50:11;8.90;99.90
37426;DHT22;23285;50.180;7.036;2023-05-25T03:52:58;8.90;99.90
37426;DHT22;23285;50.180;7.036;2023-05-25T03:58:31;9.30;99.90
37426;DHT22;23285;50.180;7.036;2023-05-25T04:04:05;9.20;99.90
37426;DHT22;23285;50.180;7.036;2023-05-25T04:09:39;9.10;99.90
37426;DHT22;23285;50.180;7.036;2023-05-25T04:15:13;9.20;99.90
37426;DHT22;23285;50.180;7.036;2023-05-25T04:18:19;9.30;99.90
37426;DHT22;23285;50.180;7.036;2023-05-25T04:26:40;9.90;99.90
37426;DHT22;23285;50.180;7.036;2023-05-25T04:29:27;10.00;99.90
37426;DHT22;23285;50.180;7.036;2023-05-25T04:32:44;10.00;99.90
37426;DHT22;23285;50.180;7.036;2023-05-25T04:38:48;10.10;99.90
37426;DHT22;23285;50.180;7.036;2023-05-25T04:52:49;10.00;99.90
37426;DHT22;23285;50.180;7.036;2023-05-25T04:55:35;10.30;99.90
37426;DHT22;23285;50.180;7.036;2023-05-25T04:58:22;9.70;99.90
37426;DHT22;23285;50.180;7.036;2023-05-25T05:01:10;9.50;99.90
37426;DHT22;23285;50.180;7.036;2023-05-25T05:03:56;9.60;99.90
37426;DHT22;23285;50.180;7.036;2023-05-25T05:09:36;9.70;99.90
37426;DHT22;23285;50.180;7.036;2023-05-25T05:12:23;9.70;99.90
37426;DHT22;23285;50.180;7.036;2023-05-25T05:18:00;9.70;99.90
37426;DHT22;23285;50.180;7.036;2023-05-25T05:20:48;10.00;99.90
37426;DHT22;23285;50.180;7.036;2023-05-25T05:23:36;9.70;99.90
37426;DHT22;23285;50.180;7.036;2023-05-25T05:26:22;9.80;99.90
37426;DHT22;23285;50.180;7.036;2023-05-25T05:29:09;9.90;99.90
37426;DHT22;23285;50.180;7.036;2023-05-25T05:31:56;10.10;99.90
37426;DHT22;23285;50.180;7.036;2023-05-25T05:34:45;10.20;99.90
37426;DHT22;23285;50.180;7.036;2023-05-25T05:40:46;10.50;99.90
37426;DHT22;23285;50.180;7.036;2023-05-25T05:43:38;10.40;99.90
37426;DHT22;23285;50.180;7.036;2023-05-25T05:46:26;10.50;99.90
37426;DHT22;23285;50.180;7.036;2023-05-25T05:49:13;10.60;99.90
37426;DHT22;23285;50.180;7.036;2023-05-25T05:52:02;10.60;99.90
37426;DHT22;23285;50.180;7.036;2023-05-25T05:54:48;10.60;99.90
37426;DHT22;23285;50.180;7.036;2023-05-25T06:00:21;10.90;99.90
37426;DHT22;23285;50.180;7.036;2023-05-25T06:05:56;10.70;99.90
37426;DHT22;23285;50.180;7.036;2023-05-25T06:08:44;10.90;99.90
37426;DHT22;23285;50.180;7.036;2023-05-25T06:11:31;11.00;99.90
37426;DHT22;23285;50.180;7.036;2023-05-25T06:14:19;11.50;99.90
37426;DHT22;23285;50.180;7.036;2023-05-25T06:19:52;11.00;99.90
37426;DHT22;23285;50.180;7.036;2023-05-25T06:28:14;11.20;99.90
37426;DHT22;23285;50.180;7.036;2023-05-25T06:31:00;11.20;99.90
37426;DHT22;23285;50.180;7.036;2023-05-25T06:33:46;11.40;99.90
37426;DHT22;23285;50.180;7.036;2023-05-25T06:36:33;11.30;99.90
37426;DHT22;23285;50.180;7.036;2023-05-25T06:39:19;11.50;99.90
37426;DHT22;23285;50.180;7.036;2023-05-25T06:44:54;11.80;99.90
37426;DHT22;23285;50.180;7.036;2023-05-25T06:50:28;12.00;99.90
37426;DHT22;23285;50.180;7.036;2023-05-25T06:53:14;12.10;99.90
37426;DHT22;23285;50.180;7.036;2023-05-25T06:58:49;11.80;99.90
37426;DHT22;23285;50.180;7.036;2023-05-25T07:01:36;11.90;99.90
37426;DHT22;23285;50.180;7.036;2023-05-25T07:04:22;11.80;99.90
37426;DHT22;23285;50.180;7.036;2023-05-25T07:07:08;11.60;99.90
37426;DHT22;23285;50.180;7.036;2023-05-25T07:09:56;11.60;99.90
37426;DHT22;23285;50.180;7.036;2023-05-25T07:12:43;11.80;99.90
37426;DHT22;23285;50.180;7.036;2023-05-25T07:15:30;11.80;99.90
37426;DHT22;23285;50.180;7.036;2023-05-25T07:18:17;12.40;99.90
37426;DHT22;23285;50.180;7.036;2023-05-25T07:21:03;12.60;99.90
37426;DHT22;23285;50.180;7.036;2023-05-25T07:23:51;12.60;99.90
37426;DHT22;23285;50.180;7.036;2023-05-25T07:26:37;12.90;99.90
37426;DHT22;23285;50.180;7.036;2023-05-25T07:29:24;12.70;99.90
37426;DHT22;23285;50.180;7.036;2023-05-25T07:32:12;12.80;99.90
37426;DHT22;23285;50.180;7.036;2023-05-25T07:34:58;12.90;99.90
37426;DHT22;23285;50.180;7.036;2023-05-25T07:37:44;12.90;99.90
37426;DHT22;23285;50.180;7.036;2023-05-25T07:40:30;13.10;99.90
37426;DHT22;23285;50.180;7.036;2023-05-25T07:43:16;12.80;99.90
37426;DHT22;23285;50.180;7.036;2023-05-25T07:46:03;13.30;99.90
37426;DHT22;23285;50.180;7.036;2023-05-25T07:48:51;13.20;99.90
37426;DHT22;23285;50.180;7.036;2023-05-25T07:51:38;13.30;99.90
37426;DHT22;23285;50.180;7.036;2023-05-25T07:57:11;13.50;99.90
37426;DHT22;23285;50.180;7.036;2023-05-25T07:59:58;13.50;99.90
37426;DHT22;23285;50.180;7.036;2023-05-25T08:05:33;13.50;99.90
37426;DHT22;23285;50.180;7.036;2023-05-25T08:11:05;13.70;99.90
37426;DHT22;23285;50.180;7.036;2023-05-25T08:13:51;13.80;99.90
37426;DHT22;23285;50.180;7.036;2023-05-25T08:16:38;13.90;99.90
37426;DHT22;23285;50.180;7.036;2023-05-25T08:19:24;14.00;99.90
37426;DHT22;23285;50.180;7.036;2023-05-25T08:22:12;14.20;99.90
37426;DHT22;23285;50.180;7.036;2023-05-25T08:24:58;14.30;99.90
37426;DHT22;23285;50.180;7.036;2023-05-25T08:27:44;14.30;99.90
37426;DHT22;23285;50.180;7.036;2023-05-25T08:36:04;14.70;99.90
37426;DHT22;23285;50.180;7.036;2023-05-25T08:38:52;15.00;99.90
37426;DHT22;23285;50.180;7.036;2023-05-25T08:41:42;15.10;99.90
37426;DHT22;23285;50.180;7.036;2023-05-25T08:44:29;15.00;99.90
37426;DHT22;23285;50.180;7.036;2023-05-25T08:47:16;15.10;99.90
37426;DHT22;23285;50.180;7.036;2023-05-25T08:50:05;15.30;99.90
37426;DHT22;23285;50.180;7.036;2023-05-25T08:52:54;15.60;99.90
37426;DHT22;23285;50.180;7.036;2023-05-25T08:58:32;15.50;99.90
37426;DHT22;23285;50.180;7.036;2023-05-25T09:01:20;15.50;99.90
37426;DHT22;23285;50.180;7.036;2023-05-25T09:04:08;15.80;99.90
37426;DHT22;23285;50.180;7.036;2023-05-25T09:09:44;15.60;99.90
37426;DHT22;23285;50.180;7.036;2023-05-25T09:12:33;15.50;99.90
37426;DHT22;23285;50.180;7.036;2023-05-25T09:15:21;15.50;99.90
37426;DHT22;23285;50.180;7.036;2023-05-25T09:20:54;16.10;99.90
37426;DHT22;23285;50.180;7.036;2023-05-25T09:23:41;16.50;99.90
37426;DHT22;23285;50.180;7.036;2023-05-25T09:26:27;16.40;99.90
37426;DHT22;23285;50.180;7.036;2023-05-25T09:29:15;15.90;99.90
37426;DHT22;23285;50.180;7.036;2023-05-25T09:34:49;16.50;99.90
37426;DHT22;23285;50.180;7.036;2023-05-25T09:43:10;17.10;99.90
37426;DHT22;23285;50.180;7.036;2023-05-25T09:45:58;17.10;99.90
37426;DHT22;23285;50.180;7.036;2023-05-25T09:48:44;17.20;99.90
37426;DHT22;23285;50.180;7.036;2023-05-25T09:51:33;17.40;99.90
37426;DHT22;23285;50.180;7.036;2023-05-25T09:54:21;17.50;99.90
37426;DHT22;23285;50.180;7.036;2023-05-25T09:59:54;17.50;99.90
37426;DHT22;23285;50.180;7.036;2023-05-25T10:02:42;17.90;99.90
37426;DHT22;23285;50.180;7.036;2023-05-25T10:08:16;18.10;99.90
37426;DHT22;23285;50.180;7.036;2023-05-25T10:11:06;18.10;99.90
37426;DHT22;23285;50.180;7.036;2023-05-25T10:13:54;18.40;99.90
37426;DHT22;23285;50.180;7.036;2023-05-25T10:19:35;18.40;99.90
37426;DHT22;23285;50.180;7.036;2023-05-25T10:22:30;18.20;99.90
37426;DHT22;23285;50.180;7.036;2023-05-25T10:25:24;18.10;99.90
37426;DHT22;23285;50.180;7.036;2023-05-25T10:28:16;18.30;99.90
37426;DHT22;23285;50.180;7.036;2023-05-25T10:31:06;18.50;99.90
37426;DHT22;23285;50.180;7.036;2023-05-25T10:33:55;18.50;99.90
37426;DHT22;23285;50.180;7.036;2023-05-25T10:39:30;18.80;99.90
37426;DHT22;23285;50.180;7.036;2023-05-25T10:42:17;18.60;99.90
37426;DHT22;23285;50.180;7.036;2023-05-25T10:45:05;18.60;99.90
37426;DHT22;23285;50.180;7.036;2023-05-25T10:47:52;19.00;99.90
37426;DHT22;23285;50.180;7.036;2023-05-25T10:50:38;19.50;99.90
37426;DHT22;23285;50.180;7.036;2023-05-25T10:58:59;19.40;99.90
37426;DHT22;23285;50.180;7.036;2023-05-25T11:07:22;19.40;99.90
37426;DHT22;23285;50.180;7.036;2023-05-25T11:10:10;19.40;99.90
37426;DHT22;23285;50.180;7.036;2023-05-25T11:13:23;19.70;99.90
37426;DHT22;23285;50.180;7.036;2023-05-25T11:16:19;19.60;99.90
37426;DHT22;23285;50.180;7.036;2023-05-25T11:19:13;19.50;99.90
37426;DHT22;23285;50.180;7.036;2023-05-25T11:22:12;20.10;99.90
37426;DHT22;23285;50.180;7.036;2023-05-25T11:25:01;20.10;99.90
37426;DHT22;23285;50.180;7.036;2023-05-25T11:30:39;20.30;99.90
37426;DHT22;23285;50.180;7.036;2023-05-25T11:36:13;20.10;99.90
37426;DHT22;23285;50.180;7.036;2023-05-25T11:39:01;20.10;99.90
37426;DHT22;23285;50.180;7.036;2023-05-25T11:44:37;19.90;99.90
37426;DHT22;23285;50.180;7.036;2023-05-25T11:47:23;20.00;99.90
37426;DHT22;23285;50.180;7.036;2023-05-25T11:50:14;20.40;99.90
37426;DHT22;23285;50.180;7.036;2023-05-25T11:53:04;20.70;99.90
37426;DHT22;23285;50.180;7.036;2023-05-25T11:55:51;20.00;99.90
37426;DHT22;23285;50.180;7.036;2023-05-25T11:58:38;20.00;99.80
37426;DHT22;23285;50.180;7.036;2023-05-25T12:01:26;20.50;99.90
37426;DHT22;23285;50.180;7.036;2023-05-25T12:07:03;21.10;99.90
37426;DHT22;23285;50.180;7.036;2023-05-25T12:15:26;21.10;99.90
37426;DHT22;23285;50.180;7.036;2023-05-25T12:23:53;21.20;99.90
37426;DHT22;23285;50.180;7.036;2023-05-25T12:29:45;21.10;99.90
37426;DHT22;23285;50.180;7.036;2023-05-25T12:32:31;20.90;99.90
37426;DHT22;23285;50.180;7.036;2023-05-25T12:35:19;21.00;99.90
37426;DHT22;23285;50.180;7.036;2023-05-25T12:46:38;21.60;99.80
37426;DHT22;23285;50.180;7.036;2023-05-25T12:49:26;21.50;99.70
37426;DHT22;23285;50.180;7.036;2023-05-25T12:52:32;21.70;99.90
37426;DHT22;23285;50.180;7.036;2023-05-25T12:55:19;21.90;99.90
37426;DHT22;23285;50.180;7.036;2023-05-25T12:58:06;21.60;99.90
37426;DHT22;23285;50.180;7.036;2023-05-25T13:00:53;21.70;99.90
37426;DHT22;23285;50.180;7.036;2023-05-25T13:03:39;22.00;99.00
37426;DHT22;23285;50.180;7.036;2023-05-25T13:06:26;21.80;98.80
37426;DHT22;23285;50.180;7.036;2023-05-25T13:09:13;21.70;98.90
37426;DHT22;23285;50.180;7.036;2023-05-25T13:12:00;21.80;98.60
37426;DHT22;23285;50.180;7.036;2023-05-25T13:14:46;21.90;99.00
37426;DHT22;23285;50.180;7.036;2023-05-25T13:20:21;22.40;98.10
37426;DHT22;23285;50.180;7.036;2023-05-25T13:23:07;22.30;98.90
37426;DHT22;23285;50.180;7.036;2023-05-25T13:25:55;22.30;99.20
37426;DHT22;23285;50.180;7.036;2023-05-25T13:28:41;22.30;98.60
37426;DHT22;23285;50.180;7.036;2023-05-25T13:37:02;22.60;98.50
37426;DHT22;23285;50.180;7.036;2023-05-25T13:39:49;22.90;98.90
37426;DHT22;23285;50.180;7.036;2023-05-25T13:42:37;22.90;98.70
37426;DHT22;23285;50.180;7.036;2023-05-25T13:45:23;22.90;98.20
37426;DHT22;23285;50.180;7.036;2023-05-25T13:50:56;22.20;98.10
37426;DHT22;23285;50.180;7.036;2023-05-25T13:53:43;22.20;98.70
37426;DHT22;23285;50.180;7.036;2023-05-25T13:56:30;22.10;98.60
37426;DHT22;23285;50.180;7.036;2023-05-25T13:59:18;22.70;98.70
37426;DHT22;23285;50.180;7.036;2023-05-25T14:02:04;23.10;98.00
37426;DHT22;23285;50.180;7.036;2023-05-25T14:07:37;22.90;97.60
37426;DHT22;23285;50.180;7.036;2023-05-25T14:15:59;22.50;97.60
37426;DHT22;23285;50.180;7.036;2023-05-25T14:18:45;22.50;98.20
37426;DHT22;23285;50.180;7.036;2023-05-25T14:21:31;22.60;97.80
37426;DHT22;23285;50.180;7.036;2023-05-25T14:27:05;23.10;97.60
37426;DHT22;23285;50.180;7.036;2023-05-25T14:29:51;22.90;98.10
37426;DHT22;23285;50.180;7.036;2023-05-25T14:38:12;23.00;97.60
37426;DHT22;23285;50.180;7.036;2023-05-25T14:43:45;22.80;96.90
37426;DHT22;23285;50.180;7.036;2023-05-25T14:46:32;23.10;97.50
37426;DHT22;23285;50.180;7.036;2023-05-25T14:49:20;23.20;96.80
37426;DHT22;23285;50.180;7.036;2023-05-25T14:52:08;23.10;98.00
37426;DHT22;23285;50.180;7.036;2023-05-25T14:54:54;23.30;97.10
37426;DHT22;23285;50.180;7.036;2023-05-25T14:57:41;23.40;96.70
37426;DHT22;23285;50.180;7.036;2023-05-25T15:00:27;23.50;96.00
37426;DHT22;23285;50.180;7.036;2023-05-25T15:03:14;22.80;96.90
37426;DHT22;23285;50.180;7.036;2023-05-25T15:06:02;23.00;96.60
37426;DHT22;23285;50.180;7.036;2023-05-25T15:08:48;23.20;96.90
37426;DHT22;23285;50.180;7.036;2023-05-25T15:11:35;23.10;96.70
37426;DHT22;23285;50.180;7.036;2023-05-25T15:14:21;23.60;95.90
37426;DHT22;23285;50.180;7.036;2023-05-25T15:17:07;23.60;95.50
37426;DHT22;23285;50.180;7.036;2023-05-25T15:19:53;23.40;96.30
37426;DHT22;23285;50.180;7.036;2023-05-25T15:22:41;23.80;95.60
37426;DHT22;23285;50.180;7.036;2023-05-25T15:25:27;23.90;95.00
37426;DHT22;23285;50.180;7.036;2023-05-25T15:31:00;23.60;96.60
37426;DHT22;23285;50.180;7.036;2023-05-25T15:36:34;24.10;97.00
37426;DHT22;23285;50.180;7.036;2023-05-25T15:39:21;23.90;95.50
37426;DHT22;23285;50.180;7.036;2023-05-25T15:42:08;24.00;96.70
37426;DHT22;23285;50.180;7.036;2023-05-25T15:44:54;24.30;96.50
37426;DHT22;23285;50.180;7.036;2023-05-25T15:47:40;24.40;95.40
37426;DHT22;23285;50.180;7.036;2023-05-25T15:50:26;24.30;95.50
37426;DHT22;23285;50.180;7.036;2023-05-25T15:53:13;23.80;96.30
37426;DHT22;23285;50.180;7.036;2023-05-25T15:56:01;24.00;94.80
37426;DHT22;23285;50.180;7.036;2023-05-25T16:01:34;24.20;97.10
37426;DHT22;23285;50.180;7.036;2023-05-25T16:09:53;23.90;97.50
37426;DHT22;23285;50.180;7.036;2023-05-25T16:15:28;23.80;97.60
37426;DHT22;23285;50.180;7.036;2023-05-25T16:18:14;24.00;97.80
37426;DHT22;23285;50.180;7.036;2023-05-25T16:21:00;24.20;96.50
37426;DHT22;23285;50.180;7.036;2023-05-25T16:23:46;24.30;96.70
37426;DHT22;23285;50.180;7.036;2023-05-25T16:26:33;24.00;96.50
37426;DHT22;23285;50.180;7.036;2023-05-25T16:29:20;23.50;96.80
37426;DHT22;23285;50.180;7.036;2023-05-25T16:32:07;23.10;97.30
37426;DHT22;23285;50.180;7.036;2023-05-25T16:34:53;23.10;96.70
37426;DHT22;23285;50.180;7.036;2023-05-25T16:37:39;23.40;96.80
37426;DHT22;23285;50.180;7.036;2023-05-25T16:40:25;23.30;97.60
37426;DHT22;23285;50.180;7.036;2023-05-25T16:43:11;23.10;96.90
37426;DHT22;23285;50.180;7.036;2023-05-25T16:45:59;22.80;97.70
37426;DHT22;23285;50.180;7.036;2023-05-25T16:48:45;22.70;97.90
37426;DHT22;23285;50.180;7.036;2023-05-25T16:51:32;22.60;98.10
37426;DHT22;23285;50.180;7.036;2023-05-25T16:57:05;22.70;97.80
37426;DHT22;23285;50.180;7.036;2023-05-25T16:59:54;22.40;98.40
37426;DHT22;23285;50.180;7.036;2023-05-25T17:02:43;22.10;97.90
37426;DHT22;23285;50.180;7.036;2023-05-25T17:05:29;22.10;98.80
37426;DHT22;23285;50.180;7.036;2023-05-25T17:08:15;22.00;98.40
37426;DHT22;23285;50.180;7.036;2023-05-25T17:11:01;22.10;98.80
37426;DHT22;23285;50.180;7.036;2023-05-25T17:13:48;21.90;99.20
37426;DHT22;23285;50.180;7.036;2023-05-25T17:19:22;21.80;98.10
37426;DHT22;23285;50.180;7.036;2023-05-25T17:22:08;21.40;98.80
37426;DHT22;23285;50.180;7.036;2023-05-25T17:24:54;21.20;99.50
37426;DHT22;23285;50.180;7.036;2023-05-25T17:30:27;21.40;98.90
37426;DHT22;23285;50.180;7.036;2023-05-25T17:33:13;21.20;98.90
37426;DHT22;23285;50.180;7.036;2023-05-25T17:36:01;21.50;98.80
37426;DHT22;23285;50.180;7.036;2023-05-25T17:41:34;21.40;98.00
37426;DHT22;23285;50.180;7.036;2023-05-25T17:44:20;21.00;98.50
37426;DHT22;23285;50.180;7.036;2023-05-25T17:47:07;20.70;98.40
37426;DHT22;23285;50.180;7.036;2023-05-25T17:49:53;20.40;99.00
37426;DHT22;23285;50.180;7.036;2023-05-25T17:52:41;20.60;98.70
37426;DHT22;23285;50.180;7.036;2023-05-25T18:01:01;20.40;98.20
37426;DHT22;23285;50.180;7.036;2023-05-25T18:03:47;20.10;98.40
37426;DHT22;23285;50.180;7.036;2023-05-25T18:09:22;20.00;98.50
37426;DHT22;23285;50.180;7.036;2023-05-25T18:12:09;19.90;98.40
37426;DHT22;23285;50.180;7.036;2023-05-25T18:17:41;19.50;99.20
37426;DHT22;23285;50.180;7.036;2023-05-25T18:20:28;19.30;99.00
37426;DHT22;23285;50.180;7.036;2023-05-25T18:28:49;18.80;99.80
37426;DHT22;23285;50.180;7.036;2023-05-25T18:31:35;18.60;99.00
37426;DHT22;23285;50.180;7.036;2023-05-25T18:34:21;18.40;99.30
37426;DHT22;23285;50.180;7.036;2023-05-25T18:39:54;18.20;99.90
37426;DHT22;23285;50.180;7.036;2023-05-25T18:42:42;17.90;99.50
37426;DHT22;23285;50.180;7.036;2023-05-25T18:48:14;17.60;99.90
37426;DHT22;23285;50.180;7.036;2023-05-25T18:51:02;17.50;99.90
37426;DHT22;23285;50.180;7.036;2023-05-25T18:53:48;17.80;99.90
37426;DHT22;23285;50.180;7.036;2023-05-25T18:56:34;17.70;99.90
37426;DHT22;23285;50.180;7.036;2023-05-25T18:59:23;17.50;99.90
37426;DHT22;23285;50.180;7.036;2023-05-25T19:02:09;17.20;99.90
37426;DHT22;23285;50.180;7.036;2023-05-25T19:04:55;17.30;99.90
37426;DHT22;23285;50.180;7.036;2023-05-25T19:07:41;17.30;99.90
37426;DHT22;23285;50.180;7.036;2023-05-25T19:10:29;16.90;99.90
37426;DHT22;23285;50.180;7.036;2023-05-25T19:13:15;16.80;99.90
37426;DHT22;23285;50.180;7.036;2023-05-25T19:16:03;17.10;99.90
37426;DHT22;23285;50.180;7.036;2023-05-25T19:18:49;17.10;99.90
37426;DHT22;23285;50.180;7.036;2023-05-25T19:21:35;17.10;99.90
37426;DHT22;23285;50.180;7.036;2023-05-25T19:27:08;17.10;99.90
37426;DHT22;23285;50.180;7.036;2023-05-25T19:29:54;17.00;99.90
37426;DHT22;23285;50.180;7.036;2023-05-25T19:32:42;16.40;99.90
37426;DHT22;23285;50.180;7.036;2023-05-25T19:35:28;16.20;99.90
37426;DHT22;23285;50.180;7.036;2023-05-25T19:41:00;16.20;99.90
37426;DHT22;23285;50.180;7.036;2023-05-25T19:43:46;16.20;99.90
37426;DHT22;23285;50.180;7.036;2023-05-25T19:46:33;16.00;99.90
37426;DHT22;23285;50.180;7.036;2023-05-25T19:57:41;15.90;99.90
37426;DHT22;23285;50.180;7.036;2023-05-25T20:06:03;15.10;99.90
37426;DHT22;23285;50.180;7.036;2023-05-25T20:11:37;15.50;99.90
37426;DHT22;23285;50.180;7.036;2023-05-25T20:14:23;15.40;99.90
37426;DHT22;23285;50.180;7.036;2023-05-25T20:17:09;15.50;99.90
37426;DHT22;23285;50.180;7.036;2023-05-25T20:19:56;14.80;99.90
37426;DHT22;23285;50.180;7.036;2023-05-25T20:25:32;14.80;99.90
37426;DHT22;23285;50.180;7.036;2023-05-25T20:28:18;14.80;99.90
37426;DHT22;23285;50.180;7.036;2023-05-25T20:39:25;14.70;99.90
37426;DHT22;23285;50.180;7.036;2023-05-25T20:42:12;14.60;99.90
37426;DHT22;23285;50.180;7.036;2023-05-25T20:44:58;14.80;99.90
37426;DHT22;23285;50.180;7.036;2023-05-25T20:50:31;14.60;99.90
37426;DHT22;23285;50.180;7.036;2023-05-25T20:53:17;14.50;99.90
37426;DHT22;23285;50.180;7.036;2023-05-25T20:56:05;14.60;99.90
37426;DHT22;23285;50.180;7.036;2023-05-25T20:58:52;14.10;99.90
37426;DHT22;23285;50.180;7.036;2023-05-25T21:01:38;14.20;99.90
37426;DHT22;23285;50.180;7.036;2023-05-25T21:09:57;14.10;99.90
37426;DHT22;23285;50.180;7.036;2023-05-25T21:12:45;14.00;99.90
37426;DHT22;23285;50.180;7.036;2023-05-25T21:15:31;14.20;99.90
37426;DHT22;23285;50.180;7.036;2023-05-25T21:18:17;14.50;99.90
37426;DHT22;23285;50.180;7.036;2023-05-25T21:26:37;14.10;99.90
37426;DHT22;23285;50.180;7.036;2023-05-25T21:29:25;13.80;99.90
37426;DHT22;23285;50.180;7.036;2023-05-25T21:40:31;13.50;99.90
37426;DHT22;23285;50.180;7.036;2023-05-25T21:46:05;13.90;99.90
37426;DHT22;23285;50.180;7.036;2023-05-25T21:48:51;14.20;99.90
37426;DHT22;23285;50.180;7.036;2023-05-25T21:54:24;14.00;99.90
37426;DHT22;23285;50.180;7.036;2023-05-25T22:02:45;14.00;99.90
37426;DHT22;23285;50.180;7.036;2023-05-25T22:11:05;13.90;99.90
37426;DHT22;23285;50.180;7.036;2023-05-25T22:13:52;13.80;99.90
37426;DHT22;23285;50.180;7.036;2023-05-25T22:19:26;14.40;99.90
37426;DHT22;23285;50.180;7.036;2023-05-25T22:22:13;14.60;99.90
37426;DHT22;23285;50.180;7.036;2023-05-25T22:24:59;14.60;99.90
37426;DHT22;23285;50.180;7.036;2023-05-25T22:27:45;13.70;99.90
37426;DHT22;23285;50.180;7.036;2023-05-25T22:30:31;13.30;99.90
37426;DHT22;23285;50.180;7.036;2023-05-25T22:33:18;13.50;99.90
37426;DHT22;23285;50.180;7.036;2023-05-25T22:41:39;13.40;99.90
37426;DHT22;23285;50.180;7.036;2023-05-25T22:44:26;13.80;99.90
37426;DHT22;23285;50.180;7.036;2023-05-25T22:52:47;13.70;99.90
37426;DHT22;23285;50.180;7.036;2023-05-25T22:58:20;13.40;99.90
37426;DHT22;23285;50.180;7.036;2023-05-25T23:01:06;13.50;99.90
37426;DHT22;23285;50.180;7.036;2023-05-25T23:03:52;13.60;99.90
37426;DHT22;23285;50.180;7.036;2023-05-25T23:09:27;13.10;99.90
37426;DHT22;23285;50.180;7.036;2023-05-25T23:12:13;13.30;99.90
37426;DHT22;23285;50.180;7.036;2023-05-25T23:14:59;13.40;99.90
37426;DHT22;23285;50.180;7.036;2023-05-25T23:20:34;13.10;99.90
37426;DHT22;23285;50.180;7.036;2023-05-25T23:23:20;13.20;99.90
37426;DHT22;23285;50.180;7.036;2023-05-25T23:26:08;13.10;99.90
37426;DHT22;23285;50.180;7.036;2023-05-25T23:28:54;13.10;99.90
37426;DHT22;23285;50.180;7.036;2023-05-25T23:31:40;13.10;99.90
37426;DHT22;23285;50.180;7.036;2023-05-25T23:37:13;13.10;99.90
37426;DHT22;23285;50.180;7.036;2023-05-25T23:39:59;13.00;99.90
37426;DHT22;23285;50.180;7.036;2023-05-25T23:42:47;13.00;99.90
37426;DHT22;23285;50.180;7.036;2023-05-25T23:48:20;12.70;99.90
37426;DHT22;23285;50.180;7.036;2023-05-25T23:53:53;13.00;99.90
37426;DHT22;23285;50.180;7.036;2023-05-25T23:59:27;13.00;99.90
